sensor_id;sensor_type;location;lat;lon;timestamp;pressure;altitude;pressure_sealevel;temperature;humidity
51524;BME280;37610;51.790;21.590;2023-01-30T00:03:30;99841.34;;;-0.12;89.73
51524;BME280;37610;51.790;21.590;2023-01-30T00:07:32;99831.28;;;-0.12;89.78
51524;BME280;37610;51.790;21.590;2023-01-30T00:11:34;99820.73;;;-0.10;89.75
51524;BME280;37610;51.790;21.590;2023-01-30T00:15:35;99817.45;;;-0.09;89.41
51524;BME280;37610;51.790;21.590;2023-01-30T00:19:37;99816.37;;;-0.05;89.47
51524;BME280;37610;51.790;21.590;2023-01-30T00:23:38;99809.25;;;-0.03;89.38
51524;BME280;37610;51.790;21.590;2023-01-30T00:27:40;99803.71;;;-0.03;89.27
51524;BME280;37610;51.790;21.590;2023-01-30T00:31:42;99787.13;;;0.01;89.52
51524;BME280;37610;51.790;21.590;2023-01-30T00:35:45;99786.88;;;0.04;89.29
51524;BME280;37610;51.790;21.590;2023-01-30T00:39:47;99782.73;;;0.02;89.36
51524;BME280;37610;51.790;21.590;2023-01-30T00:43:49;99778.33;;;0.06;89.32
51524;BME280;37610;51.790;21.590;2023-01-30T00:48:09;99771.05;;;0.08;89.46
51524;BME280;37610;51.790;21.590;2023-01-30T00:52:10;99769.20;;;0.09;89.22
51524;BME280;37610;51.790;21.590;2023-01-30T00:56:12;99761.21;;;0.11;89.05
51524;BME280;37610;51.790;21.590;2023-01-30T01:00:14;99749.82;;;0.11;89.08
51524;BME280;37610;51.790;21.590;2023-01-30T01:04:18;99739.06;;;0.13;89.32
51524;BME280;37610;51.790;21.590;2023-01-30T01:08:19;99727.28;;;0.15;89.16
51524;BME280;37610;51.790;21.590;2023-01-30T01:12:22;99716.70;;;0.18;88.95
51524;BME280;37610;51.790;21.590;2023-01-30T01:16:24;99713.36;;;0.17;88.93
51524;BME280;37610;51.790;21.590;2023-01-30T01:20:27;99699.20;;;0.17;88.70
51524;BME280;37610;51.790;21.590;2023-01-30T01:24:29;99690.41;;;0.18;88.71
51524;BME280;37610;51.790;21.590;2023-01-30T01:28:30;99685.95;;;0.19;88.58
51524;BME280;37610;51.790;21.590;2023-01-30T01:32:32;99678.39;;;0.21;88.47
51524;BME280;37610;51.790;21.590;2023-01-30T01:36:33;99670.35;;;0.21;88.48
51524;BME280;37610;51.790;21.590;2023-01-30T01:40:35;99658.41;;;0.23;88.57
51524;BME280;37610;51.790;21.590;2023-01-30T01:49:24;99647.77;;;0.25;88.02
51524;BME280;37610;51.790;21.590;2023-01-30T01:53:33;99627.77;;;0.24;88.27
51524;BME280;37610;51.790;21.590;2023-01-30T01:57:47;99627.10;;;0.23;87.95
51524;BME280;37610;51.790;21.590;2023-01-30T02:01:53;99611.19;;;0.22;88.16
51524;BME280;37610;51.790;21.590;2023-01-30T02:06:00;99608.02;;;0.21;88.10
51524;BME280;37610;51.790;21.590;2023-01-30T02:10:04;99591.29;;;0.19;87.80
51524;BME280;37610;51.790;21.590;2023-01-30T02:14:07;99577.38;;;0.18;88.03
51524;BME280;37610;51.790;21.590;2023-01-30T02:18:09;99567.13;;;0.18;87.96
51524;BME280;37610;51.790;21.590;2023-01-30T02:31:17;99543.58;;;0.19;87.78
51524;BME280;37610;51.790;21.590;2023-01-30T02:35:35;99529.17;;;0.17;87.67
51524;BME280;37610;51.790;21.590;2023-01-30T02:44:26;99525.52;;;0.14;87.70
51524;BME280;37610;51.790;21.590;2023-01-30T02:48:38;99515.39;;;0.11;87.63
51524;BME280;37610;51.790;21.590;2023-01-30T02:52:42;99514.73;;;0.11;87.79
51524;BME280;37610;51.790;21.590;2023-01-30T02:56:52;99514.95;;;0.12;87.63
51524;BME280;37610;51.790;21.590;2023-01-30T03:17:50;99478.21;;;0.13;87.01
51524;BME280;37610;51.790;21.590;2023-01-30T03:21:51;99472.36;;;0.14;86.79
51524;BME280;37610;51.790;21.590;2023-01-30T03:25:53;99469.06;;;0.13;86.48
51524;BME280;37610;51.790;21.590;2023-01-30T03:29:55;99446.13;;;0.13;86.43
51524;BME280;37610;51.790;21.590;2023-01-30T03:33:56;99439.73;;;0.12;85.94
51524;BME280;37610;51.790;21.590;2023-01-30T03:37:58;99427.80;;;0.10;85.90
51524;BME280;37610;51.790;21.590;2023-01-30T03:41:59;99430.58;;;0.10;85.92
51524;BME280;37610;51.790;21.590;2023-01-30T03:46:01;99422.40;;;0.09;85.64
51524;BME280;37610;51.790;21.590;2023-01-30T03:50:03;99408.38;;;0.09;85.51
51524;BME280;37610;51.790;21.590;2023-01-30T03:54:05;99406.77;;;0.09;84.92
51524;BME280;37610;51.790;21.590;2023-01-30T03:58:06;99386.27;;;0.07;84.84
51524;BME280;37610;51.790;21.590;2023-01-30T04:02:08;99378.62;;;0.04;84.60
51524;BME280;37610;51.790;21.590;2023-01-30T04:06:09;99355.00;;;0.03;84.49
51524;BME280;37610;51.790;21.590;2023-01-30T04:10:11;99351.27;;;0.01;84.64
51524;BME280;37610;51.790;21.590;2023-01-30T04:14:15;99354.05;;;0.00;84.47
51524;BME280;37610;51.790;21.590;2023-01-30T04:18:17;99347.95;;;0.01;84.33
51524;BME280;37610;51.790;21.590;2023-01-30T04:22:18;99337.80;;;0.00;83.85
51524;BME280;37610;51.790;21.590;2023-01-30T04:26:20;99334.30;;;-0.01;83.79
51524;BME280;37610;51.790;21.590;2023-01-30T04:30:21;99331.93;;;0.00;83.65
51524;BME280;37610;51.790;21.590;2023-01-30T04:34:23;99321.13;;;-0.01;83.22
51524;BME280;37610;51.790;21.590;2023-01-30T04:38:25;99317.46;;;-0.00;83.17
51524;BME280;37610;51.790;21.590;2023-01-30T04:42:27;99318.73;;;0.01;82.45
51524;BME280;37610;51.790;21.590;2023-01-30T04:46:29;99311.00;;;0.00;82.09
51524;BME280;37610;51.790;21.590;2023-01-30T04:50:30;99296.05;;;-0.01;81.96
51524;BME280;37610;51.790;21.590;2023-01-30T04:54:32;99281.29;;;0.02;81.81
51524;BME280;37610;51.790;21.590;2023-01-30T04:58:34;99275.58;;;0.01;81.48
51524;BME280;37610;51.790;21.590;2023-01-30T05:02:35;99258.69;;;-0.01;81.47
51524;BME280;37610;51.790;21.590;2023-01-30T05:06:37;99246.09;;;0.00;80.95
51524;BME280;37610;51.790;21.590;2023-01-30T05:10:38;99244.21;;;0.00;80.80
51524;BME280;37610;51.790;21.590;2023-01-30T05:14:40;99232.62;;;0.02;80.67
51524;BME280;37610;51.790;21.590;2023-01-30T05:18:42;99232.02;;;0.01;80.75
51524;BME280;37610;51.790;21.590;2023-01-30T05:22:43;99229.84;;;0.00;81.09
51524;BME280;37610;51.790;21.590;2023-01-30T05:26:45;99221.33;;;-0.01;81.00
51524;BME280;37610;51.790;21.590;2023-01-30T05:30:46;99221.66;;;-0.01;80.90
51524;BME280;37610;51.790;21.590;2023-01-30T05:34:48;99215.98;;;0.02;80.71
51524;BME280;37610;51.790;21.590;2023-01-30T05:38:50;99205.25;;;0.02;80.53
51524;BME280;37610;51.790;21.590;2023-01-30T05:42:51;99192.50;;;0.00;80.51
51524;BME280;37610;51.790;21.590;2023-01-30T05:46:53;99197.48;;;-0.03;80.54
51524;BME280;37610;51.790;21.590;2023-01-30T05:50:57;99196.98;;;-0.06;80.52
51524;BME280;37610;51.790;21.590;2023-01-30T05:54:59;99178.25;;;-0.06;80.49
51524;BME280;37610;51.790;21.590;2023-01-30T05:59:01;99169.02;;;-0.07;80.44
51524;BME280;37610;51.790;21.590;2023-01-30T06:03:03;99156.82;;;-0.08;80.28
51524;BME280;37610;51.790;21.590;2023-01-30T06:07:04;99147.84;;;-0.08;80.47
51524;BME280;37610;51.790;21.590;2023-01-30T06:11:09;99141.45;;;-0.08;80.36
51524;BME280;37610;51.790;21.590;2023-01-30T06:15:11;99133.02;;;-0.10;79.95
51524;BME280;37610;51.790;21.590;2023-01-30T06:19:13;99119.42;;;-0.12;80.07
51524;BME280;37610;51.790;21.590;2023-01-30T06:23:15;99106.95;;;-0.14;80.16
51524;BME280;37610;51.790;21.590;2023-01-30T06:27:16;99109.45;;;-0.17;79.53
51524;BME280;37610;51.790;21.590;2023-01-30T06:31:18;99107.14;;;-0.19;79.39
51524;BME280;37610;51.790;21.590;2023-01-30T06:35:19;99091.56;;;-0.22;79.05
51524;BME280;37610;51.790;21.590;2023-01-30T06:39:21;99084.52;;;-0.24;78.72
51524;BME280;37610;51.790;21.590;2023-01-30T06:43:23;99079.61;;;-0.29;78.46
51524;BME280;37610;51.790;21.590;2023-01-30T06:47:24;99066.73;;;-0.28;78.69
51524;BME280;37610;51.790;21.590;2023-01-30T06:51:26;99059.39;;;-0.26;78.35
51524;BME280;37610;51.790;21.590;2023-01-30T06:55:27;99054.56;;;-0.26;78.11
51524;BME280;37610;51.790;21.590;2023-01-30T06:59:29;99039.03;;;-0.25;78.89
51524;BME280;37610;51.790;21.590;2023-01-30T07:03:30;99041.66;;;-0.27;78.47
51524;BME280;37610;51.790;21.590;2023-01-30T07:07:32;99034.89;;;-0.28;78.46
51524;BME280;37610;51.790;21.590;2023-01-30T07:11:34;99037.33;;;-0.33;78.54
51524;BME280;37610;51.790;21.590;2023-01-30T07:15:35;99050.71;;;-0.32;78.30
51524;BME280;37610;51.790;21.590;2023-01-30T07:19:37;99046.98;;;-0.33;78.27
51524;BME280;37610;51.790;21.590;2023-01-30T07:23:39;99035.20;;;-0.36;77.99
51524;BME280;37610;51.790;21.590;2023-01-30T07:27:40;99019.83;;;-0.36;78.22
51524;BME280;37610;51.790;21.590;2023-01-30T07:31:42;99014.70;;;-0.35;77.82
51524;BME280;37610;51.790;21.590;2023-01-30T07:35:43;98999.45;;;-0.36;77.64
51524;BME280;37610;51.790;21.590;2023-01-30T07:39:45;99010.57;;;-0.38;77.56
51524;BME280;37610;51.790;21.590;2023-01-30T07:43:47;99017.96;;;-0.39;77.62
51524;BME280;37610;51.790;21.590;2023-01-30T07:47:49;99021.63;;;-0.40;77.24
51524;BME280;37610;51.790;21.590;2023-01-30T07:51:51;99015.18;;;-0.41;76.85
51524;BME280;37610;51.790;21.590;2023-01-30T07:55:52;99000.17;;;-0.44;76.82
51524;BME280;37610;51.790;21.590;2023-01-30T07:59:54;98997.05;;;-0.47;76.77
51524;BME280;37610;51.790;21.590;2023-01-30T08:03:55;98982.45;;;-0.48;77.19
51524;BME280;37610;51.790;21.590;2023-01-30T08:07:57;98965.42;;;-0.59;80.31
51524;BME280;37610;51.790;21.590;2023-01-30T08:11:58;98967.13;;;-0.65;81.64
51524;BME280;37610;51.790;21.590;2023-01-30T08:16:00;98964.83;;;-0.82;86.41
51524;BME280;37610;51.790;21.590;2023-01-30T08:20:03;98949.73;;;-0.89;86.28
51524;BME280;37610;51.790;21.590;2023-01-30T08:24:05;98945.67;;;-0.93;85.42
51524;BME280;37610;51.790;21.590;2023-01-30T08:28:07;98945.13;;;-0.97;84.93
51524;BME280;37610;51.790;21.590;2023-01-30T08:32:08;98936.58;;;-1.03;84.63
51524;BME280;37610;51.790;21.590;2023-01-30T08:36:10;98921.23;;;-1.03;85.72
51524;BME280;37610;51.790;21.590;2023-01-30T08:40:12;98919.52;;;-1.04;84.59
51524;BME280;37610;51.790;21.590;2023-01-30T08:44:14;98914.75;;;-1.03;84.66
51524;BME280;37610;51.790;21.590;2023-01-30T08:48:16;98913.03;;;-1.01;84.63
51524;BME280;37610;51.790;21.590;2023-01-30T08:52:18;98909.64;;;-0.94;84.05
51524;BME280;37610;51.790;21.590;2023-01-30T08:56:20;98906.67;;;-0.87;83.74
51524;BME280;37610;51.790;21.590;2023-01-30T09:00:22;98907.42;;;-0.83;83.39
51524;BME280;37610;51.790;21.590;2023-01-30T09:04:23;98901.72;;;-0.80;84.05
51524;BME280;37610;51.790;21.590;2023-01-30T09:08:26;98900.94;;;-0.80;84.64
51524;BME280;37610;51.790;21.590;2023-01-30T09:12:28;98900.23;;;-0.80;85.37
51524;BME280;37610;51.790;21.590;2023-01-30T09:16:29;98899.20;;;-0.85;86.43
51524;BME280;37610;51.790;21.590;2023-01-30T09:20:31;98896.59;;;-0.90;86.12
51524;BME280;37610;51.790;21.590;2023-01-30T09:24:32;98895.79;;;-0.93;87.05
51524;BME280;37610;51.790;21.590;2023-01-30T09:28:34;98889.30;;;-1.02;88.27
51524;BME280;37610;51.790;21.590;2023-01-30T09:32:36;98879.35;;;-1.09;89.68
51524;BME280;37610;51.790;21.590;2023-01-30T09:36:37;98861.54;;;-1.15;91.39
51524;BME280;37610;51.790;21.590;2023-01-30T09:57:56;98814.54;;;-1.16;94.79
51524;BME280;37610;51.790;21.590;2023-01-30T10:06:13;98803.71;;;-1.14;94.09
51524;BME280;37610;51.790;21.590;2023-01-30T10:19:18;98786.56;;;-1.16;96.84
51524;BME280;37610;51.790;21.590;2023-01-30T10:23:46;98777.91;;;-1.10;95.91
51524;BME280;37610;51.790;21.590;2023-01-30T10:28:17;98768.36;;;-1.03;95.36
51524;BME280;37610;51.790;21.590;2023-01-30T10:41:26;98743.86;;;-0.88;94.75
51524;BME280;37610;51.790;21.590;2023-01-30T10:50:14;98729.84;;;-0.81;96.38
51524;BME280;37610;51.790;21.590;2023-01-30T10:54:34;98726.81;;;-0.85;97.52
51524;BME280;37610;51.790;21.590;2023-01-30T10:58:47;98717.50;;;-0.84;98.70
51524;BME280;37610;51.790;21.590;2023-01-30T11:07:12;98701.04;;;-0.71;98.11
51524;BME280;37610;51.790;21.590;2023-01-30T11:11:27;98700.02;;;-0.70;97.24
51524;BME280;37610;51.790;21.590;2023-01-30T11:15:40;98684.41;;;-0.65;97.56
51524;BME280;37610;51.790;21.590;2023-01-30T11:19:42;98678.02;;;-0.63;97.21
51524;BME280;37610;51.790;21.590;2023-01-30T11:23:43;98662.13;;;-0.67;97.01
51524;BME280;37610;51.790;21.590;2023-01-30T11:27:52;98652.60;;;-0.71;97.72
51524;BME280;37610;51.790;21.590;2023-01-30T11:31:56;98651.48;;;-0.67;98.63
51524;BME280;37610;51.790;21.590;2023-01-30T11:36:04;98646.28;;;-0.66;98.94
51524;BME280;37610;51.790;21.590;2023-01-30T11:40:21;98640.30;;;-0.65;99.08
51524;BME280;37610;51.790;21.590;2023-01-30T11:44:28;98644.16;;;-0.61;98.78
51524;BME280;37610;51.790;21.590;2023-01-30T11:48:32;98635.45;;;-0.57;98.69
51524;BME280;37610;51.790;21.590;2023-01-30T11:52:36;98643.61;;;-0.56;98.45
51524;BME280;37610;51.790;21.590;2023-01-30T11:56:51;98622.79;;;-0.58;98.48
51524;BME280;37610;51.790;21.590;2023-01-30T12:00:54;98618.23;;;-0.55;98.16
51524;BME280;37610;51.790;21.590;2023-01-30T12:05:03;98615.80;;;-0.55;97.69
51524;BME280;37610;51.790;21.590;2023-01-30T12:09:32;98605.46;;;-0.55;97.91
51524;BME280;37610;51.790;21.590;2023-01-30T12:13:41;98601.58;;;-0.48;98.36
51524;BME280;37610;51.790;21.590;2023-01-30T12:22:20;98590.30;;;-0.44;98.27
51524;BME280;37610;51.790;21.590;2023-01-30T12:26:28;98589.80;;;-0.43;98.00
51524;BME280;37610;51.790;21.590;2023-01-30T12:30:42;98595.50;;;-0.43;97.84
51524;BME280;37610;51.790;21.590;2023-01-30T12:34:46;98591.09;;;-0.42;97.54
51524;BME280;37610;51.790;21.590;2023-01-30T13:10:10;98566.13;;;-0.36;100.00
51524;BME280;37610;51.790;21.590;2023-01-30T13:19:23;98553.71;;;-0.32;100.00
51524;BME280;37610;51.790;21.590;2023-01-30T13:23:35;98557.83;;;-0.34;100.00
51524;BME280;37610;51.790;21.590;2023-01-30T13:27:44;98552.03;;;-0.34;100.00
51524;BME280;37610;51.790;21.590;2023-01-30T13:31:54;98557.33;;;-0.30;100.00
51524;BME280;37610;51.790;21.590;2023-01-30T13:36:11;98552.55;;;-0.28;100.00
51524;BME280;37610;51.790;21.590;2023-01-30T13:40:18;98556.49;;;-0.26;100.00
51524;BME280;37610;51.790;21.590;2023-01-30T13:44:24;98553.39;;;-0.20;100.00
51524;BME280;37610;51.790;21.590;2023-01-30T13:53:06;98554.80;;;-0.15;100.00
51524;BME280;37610;51.790;21.590;2023-01-30T14:06:12;-1.00;;;-128.00;-1.00
51524;BME280;37610;51.790;21.590;2023-01-30T14:10:16;-1.00;;;-128.00;-1.00
51524;BME280;37610;51.790;21.590;2023-01-30T14:14:26;-1.00;;;-128.00;-1.00
51524;BME280;37610;51.790;21.590;2023-01-30T14:18:33;-1.00;;;-128.00;-1.00
51524;BME280;37610;51.790;21.590;2023-01-30T14:22:52;-1.00;;;-128.00;-1.00
51524;BME280;37610;51.790;21.590;2023-01-30T14:31:00;-1.00;;;-128.00;-1.00
51524;BME280;37610;51.790;21.590;2023-01-30T14:39:36;-1.00;;;-128.00;-1.00
51524;BME280;37610;51.790;21.590;2023-01-30T14:47:43;-1.00;;;-128.00;-1.00
51524;BME280;37610;51.790;21.590;2023-01-30T14:51:45;-1.00;;;-128.00;-1.00
51524;BME280;37610;51.790;21.590;2023-01-30T14:55:58;-1.00;;;-128.00;-1.00
51524;BME280;37610;51.790;21.590;2023-01-30T15:00:05;-1.00;;;-128.00;-1.00
51524;BME280;37610;51.790;21.590;2023-01-30T15:04:17;-1.00;;;-128.00;-1.00
51524;BME280;37610;51.790;21.590;2023-01-30T15:08:23;-1.00;;;-128.00;-1.00
51524;BME280;37610;51.790;21.590;2023-01-30T15:25:30;-1.00;;;-128.00;-1.00
51524;BME280;37610;51.790;21.590;2023-01-30T15:34:22;-1.00;;;-128.00;-1.00
51524;BME280;37610;51.790;21.590;2023-01-30T15:38:32;-1.00;;;-128.00;-1.00
51524;BME280;37610;51.790;21.590;2023-01-30T15:42:35;-1.00;;;-128.00;-1.00
51524;BME280;37610;51.790;21.590;2023-01-30T15:50:56;-1.00;;;-128.00;-1.00
51524;BME280;37610;51.790;21.590;2023-01-30T15:54:59;-1.00;;;-128.00;-1.00
51524;BME280;37610;51.790;21.590;2023-01-30T15:59:02;-1.00;;;-128.00;-1.00
51524;BME280;37610;51.790;21.590;2023-01-30T16:03:10;-1.00;;;-128.00;-1.00
51524;BME280;37610;51.790;21.590;2023-01-30T16:07:15;-1.00;;;-128.00;-1.00
51524;BME280;37610;51.790;21.590;2023-01-30T16:11:34;-1.00;;;-128.00;-1.00
51524;BME280;37610;51.790;21.590;2023-01-30T16:20:12;-1.00;;;-128.00;-1.00
51524;BME280;37610;51.790;21.590;2023-01-30T16:24:20;-1.00;;;-128.00;-1.00
51524;BME280;37610;51.790;21.590;2023-01-30T16:28:27;-1.00;;;-128.00;-1.00
51524;BME280;37610;51.790;21.590;2023-01-30T16:32:30;-1.00;;;-128.00;-1.00
51524;BME280;37610;51.790;21.590;2023-01-30T16:36:38;-1.00;;;-128.00;-1.00
51524;BME280;37610;51.790;21.590;2023-01-30T16:40:44;-1.00;;;-128.00;-1.00
51524;BME280;37610;51.790;21.590;2023-01-30T16:44:46;-1.00;;;-128.00;-1.00
51524;BME280;37610;51.790;21.590;2023-01-30T16:48:48;-1.00;;;-128.00;-1.00
51524;BME280;37610;51.790;21.590;2023-01-30T16:52:51;-1.00;;;-128.00;-1.00
51524;BME280;37610;51.790;21.590;2023-01-30T16:56:56;-1.00;;;-128.00;-1.00
51524;BME280;37610;51.790;21.590;2023-01-30T17:01:04;-1.00;;;-128.00;-1.00
51524;BME280;37610;51.790;21.590;2023-01-30T17:05:20;-1.00;;;-128.00;-1.00
51524;BME280;37610;51.790;21.590;2023-01-30T17:13:42;-1.00;;;-128.00;-1.00
51524;BME280;37610;51.790;21.590;2023-01-30T17:17:44;-1.00;;;-128.00;-1.00
51524;BME280;37610;51.790;21.590;2023-01-30T17:21:49;-1.00;;;-128.00;-1.00
51524;BME280;37610;51.790;21.590;2023-01-30T17:25:52;-1.00;;;-128.00;-1.00
51524;BME280;37610;51.790;21.590;2023-01-30T17:29:54;-1.00;;;-128.00;-1.00
51524;BME280;37610;51.790;21.590;2023-01-30T17:33:55;-1.00;;;-128.00;-1.00
51524;BME280;37610;51.790;21.590;2023-01-30T17:37:57;-1.00;;;-128.00;-1.00
51524;BME280;37610;51.790;21.590;2023-01-30T17:41:58;-1.00;;;-128.00;-1.00
51524;BME280;37610;51.790;21.590;2023-01-30T17:46:00;-1.00;;;-128.00;-1.00
51524;BME280;37610;51.790;21.590;2023-01-30T17:50:02;-1.00;;;-128.00;-1.00
51524;BME280;37610;51.790;21.590;2023-01-30T17:54:04;-1.00;;;-128.00;-1.00
51524;BME280;37610;51.790;21.590;2023-01-30T17:58:05;-1.00;;;-128.00;-1.00
51524;BME280;37610;51.790;21.590;2023-01-30T18:02:10;-1.00;;;-128.00;-1.00
51524;BME280;37610;51.790;21.590;2023-01-30T18:06:13;-1.00;;;-128.00;-1.00
51524;BME280;37610;51.790;21.590;2023-01-30T18:10:18;-1.00;;;-128.00;-1.00
51524;BME280;37610;51.790;21.590;2023-01-30T18:14:19;-1.00;;;-128.00;-1.00
51524;BME280;37610;51.790;21.590;2023-01-30T18:18:21;-1.00;;;-128.00;-1.00
51524;BME280;37610;51.790;21.590;2023-01-30T18:22:23;-1.00;;;-128.00;-1.00
51524;BME280;37610;51.790;21.590;2023-01-30T18:26:24;-1.00;;;-128.00;-1.00
51524;BME280;37610;51.790;21.590;2023-01-30T18:30:26;-1.00;;;-128.00;-1.00
51524;BME280;37610;51.790;21.590;2023-01-30T18:34:28;-1.00;;;-128.00;-1.00
51524;BME280;37610;51.790;21.590;2023-01-30T18:38:29;-1.00;;;-128.00;-1.00
51524;BME280;37610;51.790;21.590;2023-01-30T18:42:31;-1.00;;;-128.00;-1.00
51524;BME280;37610;51.790;21.590;2023-01-30T18:46:32;-1.00;;;-128.00;-1.00
51524;BME280;37610;51.790;21.590;2023-01-30T18:50:35;-1.00;;;-128.00;-1.00
51524;BME280;37610;51.790;21.590;2023-01-30T18:54:36;-1.00;;;-128.00;-1.00
51524;BME280;37610;51.790;21.590;2023-01-30T18:58:38;-1.00;;;-128.00;-1.00
51524;BME280;37610;51.790;21.590;2023-01-30T19:02:40;-1.00;;;-128.00;-1.00
51524;BME280;37610;51.790;21.590;2023-01-30T19:06:43;-1.00;;;-128.00;-1.00
51524;BME280;37610;51.790;21.590;2023-01-30T19:10:45;-1.00;;;-128.00;-1.00
51524;BME280;37610;51.790;21.590;2023-01-30T19:14:46;-1.00;;;-128.00;-1.00
51524;BME280;37610;51.790;21.590;2023-01-30T19:18:48;-1.00;;;-128.00;-1.00
51524;BME280;37610;51.790;21.590;2023-01-30T19:22:50;-1.00;;;-128.00;-1.00
51524;BME280;37610;51.790;21.590;2023-01-30T19:26:52;-1.00;;;-128.00;-1.00
51524;BME280;37610;51.790;21.590;2023-01-30T19:30:54;-1.00;;;-128.00;-1.00
51524;BME280;37610;51.790;21.590;2023-01-30T19:34:55;-1.00;;;-128.00;-1.00
51524;BME280;37610;51.790;21.590;2023-01-30T19:38:58;-1.00;;;-128.00;-1.00
51524;BME280;37610;51.790;21.590;2023-01-30T19:43:00;-1.00;;;-128.00;-1.00
51524;BME280;37610;51.790;21.590;2023-01-30T19:47:01;-1.00;;;-128.00;-1.00
51524;BME280;37610;51.790;21.590;2023-01-30T19:51:13;-1.00;;;-128.00;-1.00
51524;BME280;37610;51.790;21.590;2023-01-30T19:55:15;-1.00;;;-128.00;-1.00
51524;BME280;37610;51.790;21.590;2023-01-30T19:59:18;-1.00;;;-128.00;-1.00
51524;BME280;37610;51.790;21.590;2023-01-30T20:03:20;-1.00;;;-128.00;-1.00
51524;BME280;37610;51.790;21.590;2023-01-30T20:07:22;-1.00;;;-128.00;-1.00
51524;BME280;37610;51.790;21.590;2023-01-30T20:11:23;-1.00;;;-128.00;-1.00
51524;BME280;37610;51.790;21.590;2023-01-30T20:15:25;-1.00;;;-128.00;-1.00
51524;BME280;37610;51.790;21.590;2023-01-30T20:19:26;-1.00;;;-128.00;-1.00
51524;BME280;37610;51.790;21.590;2023-01-30T20:23:28;-1.00;;;-128.00;-1.00
51524;BME280;37610;51.790;21.590;2023-01-30T20:27:29;-1.00;;;-128.00;-1.00
51524;BME280;37610;51.790;21.590;2023-01-30T20:31:31;-1.00;;;-128.00;-1.00
51524;BME280;37610;51.790;21.590;2023-01-30T20:35:34;-1.00;;;-128.00;-1.00
51524;BME280;37610;51.790;21.590;2023-01-30T20:39:36;-1.00;;;-128.00;-1.00
51524;BME280;37610;51.790;21.590;2023-01-30T20:43:39;-1.00;;;-128.00;-1.00
51524;BME280;37610;51.790;21.590;2023-01-30T20:47:41;-1.00;;;-128.00;-1.00
51524;BME280;37610;51.790;21.590;2023-01-30T20:51:43;-1.00;;;-128.00;-1.00
51524;BME280;37610;51.790;21.590;2023-01-30T20:55:45;-1.00;;;-128.00;-1.00
51524;BME280;37610;51.790;21.590;2023-01-30T20:59:48;-1.00;;;-128.00;-1.00
51524;BME280;37610;51.790;21.590;2023-01-30T21:03:52;-1.00;;;-128.00;-1.00
51524;BME280;37610;51.790;21.590;2023-01-30T21:07:54;-1.00;;;-128.00;-1.00
51524;BME280;37610;51.790;21.590;2023-01-30T21:11:55;-1.00;;;-128.00;-1.00
51524;BME280;37610;51.790;21.590;2023-01-30T21:16:11;-1.00;;;-128.00;-1.00
51524;BME280;37610;51.790;21.590;2023-01-30T21:20:13;-1.00;;;-128.00;-1.00
51524;BME280;37610;51.790;21.590;2023-01-30T21:24:16;-1.00;;;-128.00;-1.00
51524;BME280;37610;51.790;21.590;2023-01-30T21:28:19;-1.00;;;-128.00;-1.00
51524;BME280;37610;51.790;21.590;2023-01-30T21:32:20;-1.00;;;-128.00;-1.00
51524;BME280;37610;51.790;21.590;2023-01-30T21:36:23;-1.00;;;-128.00;-1.00
51524;BME280;37610;51.790;21.590;2023-01-30T21:40:24;-1.00;;;-128.00;-1.00
51524;BME280;37610;51.790;21.590;2023-01-30T21:44:44;-1.00;;;-128.00;-1.00
51524;BME280;37610;51.790;21.590;2023-01-30T21:48:46;-1.00;;;-128.00;-1.00
51524;BME280;37610;51.790;21.590;2023-01-30T21:52:47;-1.00;;;-128.00;-1.00
51524;BME280;37610;51.790;21.590;2023-01-30T21:56:49;-1.00;;;-128.00;-1.00
51524;BME280;37610;51.790;21.590;2023-01-30T22:00:51;-1.00;;;-128.00;-1.00
51524;BME280;37610;51.790;21.590;2023-01-30T22:04:52;-1.00;;;-128.00;-1.00
51524;BME280;37610;51.790;21.590;2023-01-30T22:08:55;-1.00;;;-128.00;-1.00
51524;BME280;37610;51.790;21.590;2023-01-30T22:12:57;-1.00;;;-128.00;-1.00
51524;BME280;37610;51.790;21.590;2023-01-30T22:16:58;-1.00;;;-128.00;-1.00
51524;BME280;37610;51.790;21.590;2023-01-30T22:21:19;-1.00;;;-128.00;-1.00
51524;BME280;37610;51.790;21.590;2023-01-30T22:25:21;-1.00;;;-128.00;-1.00
51524;BME280;37610;51.790;21.590;2023-01-30T22:29:23;-1.00;;;-128.00;-1.00
51524;BME280;37610;51.790;21.590;2023-01-30T22:33:24;-1.00;;;-128.00;-1.00
51524;BME280;37610;51.790;21.590;2023-01-30T22:37:26;-1.00;;;-128.00;-1.00
51524;BME280;37610;51.790;21.590;2023-01-30T22:41:30;-1.00;;;-128.00;-1.00
51524;BME280;37610;51.790;21.590;2023-01-30T22:45:35;-1.00;;;-128.00;-1.00
51524;BME280;37610;51.790;21.590;2023-01-30T22:49:37;-1.00;;;-128.00;-1.00
51524;BME280;37610;51.790;21.590;2023-01-30T22:53:41;-1.00;;;-128.00;-1.00
51524;BME280;37610;51.790;21.590;2023-01-30T22:57:43;-1.00;;;-128.00;-1.00
51524;BME280;37610;51.790;21.590;2023-01-30T23:01:46;-1.00;;;-128.00;-1.00
51524;BME280;37610;51.790;21.590;2023-01-30T23:06:02;-1.00;;;-128.00;-1.00
51524;BME280;37610;51.790;21.590;2023-01-30T23:10:04;-1.00;;;-128.00;-1.00
51524;BME280;37610;51.790;21.590;2023-01-30T23:14:09;-1.00;;;-128.00;-1.00
51524;BME280;37610;51.790;21.590;2023-01-30T23:18:12;-1.00;;;-128.00;-1.00
51524;BME280;37610;51.790;21.590;2023-01-30T23:22:34;-1.00;;;-128.00;-1.00
51524;BME280;37610;51.790;21.590;2023-01-30T23:26:38;-1.00;;;-128.00;-1.00
51524;BME280;37610;51.790;21.590;2023-01-30T23:30:40;-1.00;;;-128.00;-1.00
51524;BME280;37610;51.790;21.590;2023-01-30T23:34:41;-1.00;;;-128.00;-1.00
51524;BME280;37610;51.790;21.590;2023-01-30T23:38:47;-1.00;;;-128.00;-1.00
51524;BME280;37610;51.790;21.590;2023-01-30T23:42:50;-1.00;;;-128.00;-1.00
51524;BME280;37610;51.790;21.590;2023-01-30T23:46:51;-1.00;;;-128.00;-1.00
51524;BME280;37610;51.790;21.590;2023-01-30T23:50:53;-1.00;;;-128.00;-1.00
51524;BME280;37610;51.790;21.590;2023-01-30T23:54:54;-1.00;;;-128.00;-1.00
51524;BME280;37610;51.790;21.590;2023-01-30T23:58:56;-1.00;;;-128.00;-1.00
